Avon, Indiana
Current Conditions -  °F | °C
As of 12:53 AM on Thursday 18 Dec 2014 (Local Time) from KEYE Reporting Station
Overcast Overcast  
Wind Chill: -8°   Ceiling: 1900
Heat Index: -4°   Visibility: 10mi
Dew Point: -8°   Wind: 6mph
Humidity: 75%   Direction: 310°NW
Pressure: 30.28"   Gusts: NA
Location:  39.76°N, 86.4°W
Report Text: KEYE 180553Z AUTO 31005KT 10SM OVC019 M04/M08 A3028 RMK AO2 SLP264 T10391078 11039 21044 50001
Loading
Personal Weather Stations






























Interactive Weather Map New forecast layout! Learn more

10-Day Weather Forecast

Advertisements
Track Severe Weather on mobile